Time;durP1;ratioP1;P1;durP2;ratioP2;P2;SDS_P1;SDS_P2;PMS_P1;PMS_P2;Temp;Humidity;BMP_temperature;BMP_pressure;BME280_temperature;BME280_humidity;BME280_pressure;Samples;Min_cycle;Max_cycle;Signal;HPM_P1;HPM_P2
2022/07/06 00:02:03;;;;;;;6.67;4.40;;;;;;;13.73;93.14;97945.50;6236338;28;20235;-45
2022/07/06 00:05:06;;;;;;;4.90;4.27;;;;;;;13.71;92.66;97947.44;6231391;28;20255;-45
2022/07/06 00:08:09;;;;;;;5.00;4.50;;;;;;;13.70;92.99;97948.44;6229606;28;20377;-45
2022/07/06 00:11:11;;;;;;;5.53;5.03;;;;;;;13.69;93.52;97952.88;6230753;28;20223;-47
2022/07/06 00:14:13;;;;;;;6.03;5.37;;;;;;;13.71;93.73;97955.41;6230936;28;20264;-46
2022/07/06 00:17:16;;;;;;;6.00;5.50;;;;;;;13.74;93.75;97963.94;6230245;28;20238;-45
2022/07/06 00:20:18;;;;;;;5.33;4.93;;;;;;;13.78;94.04;97975.94;6230484;28;20277;-49
2022/07/06 00:23:20;;;;;;;5.43;5.03;;;;;;;13.84;94.03;97982.53;6230744;28;20607;-46
2022/07/06 00:26:23;;;;;;;5.50;5.00;;;;;;;13.88;94.08;97975.97;6229804;28;20330;-46
2022/07/06 00:29:25;;;;;;;6.27;5.07;;;;;;;13.92;93.65;97988.84;6230221;28;20232;-47
2022/07/06 00:32:28;;;;;;;6.10;5.53;;;;;;;13.97;93.91;97983.94;6213076;28;20630;-47
2022/07/06 00:35:31;;;;;;;5.80;5.40;;;;;;;14.05;93.62;97993.91;6230453;28;20314;-45
2022/07/06 00:38:34;;;;;;;5.70;5.30;;;;;;;14.14;93.35;98009.00;6229629;28;20231;-44
2022/07/06 00:41:38;;;;;;;6.47;5.47;;;;;;;14.25;93.36;98010.69;6213734;28;20231;-46
2022/07/06 00:44:41;;;;;;;6.67;5.97;;;;;;;14.35;93.15;98008.88;6230307;28;20274;-47
2022/07/06 00:47:45;;;;;;;6.23;5.67;;;;;;;14.46;93.35;98006.13;6229035;28;20342;-46
2022/07/06 00:50:47;;;;;;;12.60;11.60;;;;;;;15.09;95.13;97996.69;6223633;28;20235;-49
2022/07/06 00:53:49;;;;;;;12.07;11.17;;;;;;;15.47;93.71;98000.22;6203366;28;20252;-49
2022/07/06 00:56:52;;;;;;;11.80;9.97;;;;;;;15.85;92.76;97991.25;6228048;28;20258;-46
2022/07/06 00:59:56;;;;;;;8.30;7.70;;;;;;;16.19;91.47;97989.63;6227386;28;20263;-51
2022/07/06 01:02:58;;;;;;;8.03;7.43;;;;;;;16.41;90.03;97969.69;6228265;28;20239;-46
2022/07/06 01:06:01;;;;;;;6.83;6.33;;;;;;;16.55;89.44;97968.34;6229238;28;20231;-47
2022/07/06 01:09:05;;;;;;;5.93;5.53;;;;;;;16.44;88.91;97968.56;6228908;28;20703;-49
2022/07/06 01:12:08;;;;;;;5.63;5.23;;;;;;;16.21;88.18;97969.00;6229420;28;20285;-45
2022/07/06 01:15:23;;;;;;;4.50;4.13;;;;;;;15.96;88.01;97959.13;6210721;28;20218;-45
2022/07/06 01:18:27;;;;;;;5.23;4.83;;;;;;;15.63;89.08;97957.06;6227617;28;20227;-44
2022/07/06 01:21:29;;;;;;;5.23;4.70;;;;;;;15.49;90.03;97951.19;6228849;28;20242;-45
2022/07/06 01:24:31;;;;;;;6.03;5.53;;;;;;;15.45;90.50;97941.84;6211676;28;20235;-44
2022/07/06 01:27:38;;;;;;;6.33;5.83;;;;;;;15.44;91.58;97934.84;6228383;28;20227;-44
2022/07/06 01:30:40;;;;;;;6.23;5.53;;;;;;;15.46;92.13;97934.72;6229258;28;20231;-47
2022/07/06 01:33:43;;;;;;;7.30;6.67;;;;;;;15.47;92.68;97939.84;6229268;28;20231;-44
2022/07/06 01:36:45;;;;;;;6.87;6.17;;;;;;;15.50;92.87;97936.91;6228354;28;20310;-44
2022/07/06 01:39:47;;;;;;;7.57;6.87;;;;;;;15.54;93.20;97940.16;6229123;28;20313;-46
2022/07/06 01:42:50;;;;;;;8.43;7.80;;;;;;;15.52;93.69;97942.94;6228841;28;20742;-48
2022/07/06 01:45:53;;;;;;;8.00;7.40;;;;;;;15.48;94.27;97944.19;6210061;28;20227;-45
2022/07/06 01:48:55;;;;;;;7.57;6.97;;;;;;;15.46;94.38;97943.53;6228354;28;20224;-47
2022/07/06 01:51:58;;;;;;;8.07;7.40;;;;;;;15.47;94.66;97949.69;6203620;28;20704;-44
2022/07/06 01:55:00;;;;;;;8.20;7.50;;;;;;;15.45;94.63;97944.50;6219115;28;20224;-48
2022/07/06 01:58:04;;;;;;;8.93;8.13;;;;;;;15.45;94.86;97951.66;6227401;28;20632;-43
2022/07/06 02:01:11;;;;;;;7.07;6.57;;;;;;;15.44;94.83;97949.97;6210949;28;20219;-45
2022/07/06 02:04:14;;;;;;;6.60;6.10;;;;;;;15.42;94.79;97950.13;6153646;28;20254;-44
2022/07/06 02:07:16;;;;;;;7.87;7.17;;;;;;;15.42;94.86;97963.41;6210139;28;20577;-44
2022/07/06 02:10:18;;;;;;;7.60;7.00;;;;;;;15.40;94.99;97967.19;6229076;28;20228;-47
2022/07/06 02:13:21;;;;;;;6.13;5.73;;;;;;;15.40;95.01;97969.84;6210677;28;20223;-44
2022/07/06 02:16:23;;;;;;;7.83;7.13;;;;;;;15.36;94.97;97969.34;6210318;28;20231;-44
2022/07/06 02:19:25;;;;;;;6.63;6.00;;;;;;;15.33;95.01;97982.06;6210510;28;20235;-45
2022/07/06 02:22:27;;;;;;;6.80;6.10;;;;;;;15.28;94.71;97982.50;6228723;28;20618;-45
2022/07/06 02:25:29;;;;;;;8.23;5.83;;;;;;;15.26;94.80;97975.66;6210835;28;20227;-48
2022/07/06 02:28:31;;;;;;;6.37;5.83;;;;;;;15.23;94.63;97984.75;6210576;28;20234;-44
2022/07/06 02:31:34;;;;;;;6.33;5.83;;;;;;;15.18;94.51;97984.34;6214161;28;20699;-45
2022/07/06 02:34:36;;;;;;;6.17;5.40;;;;;;;15.12;94.51;97980.44;6215515;28;20246;-47
2022/07/06 02:37:38;;;;;;;5.90;5.50;;;;;;;15.08;94.58;97989.69;6215249;28;20231;-46
2022/07/06 02:40:40;;;;;;;5.60;5.20;;;;;;;15.01;94.49;97991.25;6215759;28;20232;-47
2022/07/06 02:43:42;;;;;;;5.67;5.00;;;;;;;14.96;94.26;97990.84;6215573;28;20726;-44
2022/07/06 02:46:44;;;;;;;6.30;5.80;;;;;;;14.89;94.50;97992.38;6232417;28;20288;-45
2022/07/06 02:49:46;;;;;;;5.97;5.40;;;;;;;14.86;94.43;97995.34;6232897;28;20622;-46
2022/07/06 02:52:48;;;;;;;5.43;5.03;;;;;;;14.85;94.42;97990.16;6207194;28;20299;-45
2022/07/06 02:55:50;;;;;;;5.40;5.00;;;;;;;14.83;94.56;97992.13;6215011;28;20248;-46
2022/07/06 02:58:54;;;;;;;4.40;4.10;;;;;;;14.80;94.29;98000.38;6214019;28;20230;-44
2022/07/06 03:01:56;;;;;;;4.87;4.57;;;;;;;14.74;94.11;98007.09;6214433;28;20235;-46
2022/07/06 03:05:18;;;;;;;5.30;4.90;;;;;;;14.66;93.73;97996.34;6180810;28;20237;-45
2022/07/06 03:08:21;;;;;;;5.10;4.60;;;;;;;14.63;93.82;97993.97;6179893;28;20696;-45
2022/07/06 03:11:24;;;;;;;5.20;4.80;;;;;;;14.60;93.65;98000.38;6146089;28;20230;-46
2022/07/06 03:14:26;;;;;;;4.80;4.40;;;;;;;14.55;93.48;97999.97;6140033;28;20698;-49
2022/07/06 03:17:29;;;;;;;5.27;4.30;;;;;;;14.52;93.56;98000.25;6139518;28;20721;-44
2022/07/06 03:20:31;;;;;;;4.23;3.93;;;;;;;14.44;93.19;98007.25;6156161;28;20706;-47
2022/07/06 03:23:34;;;;;;;4.77;4.37;;;;;;;14.40;93.06;98004.03;6184457;28;20741;-46
2022/07/06 03:26:36;;;;;;;4.17;3.87;;;;;;;14.32;92.89;97994.06;6213924;28;20216;-46
2022/07/06 03:29:39;;;;;;;4.90;4.17;;;;;;;14.25;92.90;97990.28;6231830;28;20701;-44
2022/07/06 03:32:42;;;;;;;4.37;4.07;;;;;;;14.16;92.66;97990.28;6231979;28;20224;-44
2022/07/06 03:35:45;;;;;;;4.60;3.97;;;;;;;14.11;92.43;97987.19;6213056;28;20281;-44
2022/07/06 03:38:47;;;;;;;3.70;3.40;;;;;;;14.07;92.45;97991.13;6213096;28;20309;-45
2022/07/06 03:41:49;;;;;;;4.03;3.73;;;;;;;14.03;92.46;97988.72;6228734;28;20719;-47
2022/07/06 03:44:52;;;;;;;4.17;3.77;;;;;;;13.98;92.25;97982.13;6212872;28;20711;-45
2022/07/06 03:47:54;;;;;;;4.27;3.90;;;;;;;13.96;92.04;97984.09;6230730;28;20310;-50
2022/07/06 03:50:56;;;;;;;3.90;3.60;;;;;;;13.93;91.66;97981.72;6217249;28;20226;-44
2022/07/06 03:53:58;;;;;;;4.00;3.70;;;;;;;13.89;91.94;97981.16;6213320;28;20271;-46
2022/07/06 03:57:00;;;;;;;4.07;3.70;;;;;;;13.86;91.54;97988.56;6187994;28;20322;-43
2022/07/06 04:00:04;;;;;;;5.00;3.90;;;;;;;13.84;91.88;97974.59;6229608;28;20222;-47
2022/07/06 04:03:14;;;;;;;4.07;3.40;;;;;;;13.82;91.76;97982.66;6228824;28;20236;-48
2022/07/06 04:06:22;;;;;;;3.90;3.70;;;;;;;13.80;91.70;97981.97;6205118;28;20244;-45
2022/07/06 04:09:24;;;;;;;3.67;3.37;;;;;;;13.81;91.85;97980.16;6222192;28;20533;-45
2022/07/06 04:12:27;;;;;;;4.13;3.83;;;;;;;13.80;91.33;97971.34;6205172;28;20626;-46
2022/07/06 04:15:29;;;;;;;3.80;3.50;;;;;;;13.78;91.66;97975.09;6215241;28;20239;-45
2022/07/06 04:18:31;;;;;;;4.33;3.87;;;;;;;13.79;91.41;97974.97;6212231;28;20227;-45
2022/07/06 04:21:34;;;;;;;5.03;3.90;;;;;;;13.79;91.67;97974.97;6213123;28;20665;-47
2022/07/06 04:24:36;;;;;;;3.83;3.53;;;;;;;13.81;91.81;97980.16;6212483;28;20235;-46
2022/07/06 04:27:39;;;;;;;3.80;3.47;;;;;;;13.83;91.45;97984.34;6211630;28;20224;-45
2022/07/06 04:30:42;;;;;;;4.73;3.80;;;;;;;13.87;91.55;97988.44;6212939;28;20698;-46
2022/07/06 04:33:48;;;;;;;3.37;3.17;;;;;;;13.89;91.69;97983.78;6229932;28;20271;-46
2022/07/06 04:36:50;;;;;;;4.07;3.70;;;;;;;13.88;91.59;97984.75;6212030;28;20322;-47
2022/07/06 04:39:53;;;;;;;3.83;3.53;;;;;;;13.91;91.36;97988.97;6230469;28;20322;-47
2022/07/06 04:42:55;;;;;;;3.50;3.30;;;;;;;13.95;91.53;97985.09;6228189;28;20721;-48
2022/07/06 04:46:01;;;;;;;3.47;3.23;;;;;;;13.99;91.13;97986.47;6211834;28;20330;-45
2022/07/06 04:49:05;;;;;;;3.63;3.33;;;;;;;13.98;91.17;97993.59;6212265;28;20240;-47
2022/07/06 04:52:08;;;;;;;3.47;3.17;;;;;;;13.99;91.23;98000.56;6228807;28;20467;-47
2022/07/06 04:55:11;;;;;;;3.50;3.30;;;;;;;14.04;91.10;97994.88;6201977;28;20240;-47
2022/07/06 04:58:13;;;;;;;3.73;3.43;;;;;;;14.10;90.96;98001.44;6206115;28;20228;-47
2022/07/06 05:01:16;;;;;;;3.90;3.60;;;;;;;14.10;91.11;97991.66;6212457;28;20239;-50
2022/07/06 05:04:19;;;;;;;3.30;3.10;;;;;;;14.14;90.69;97990.41;6211718;28;20858;-48
2022/07/06 05:07:22;;;;;;;3.70;3.40;;;;;;;14.18;90.78;97998.94;6210510;28;20231;-51
2022/07/06 05:10:24;;;;;;;3.60;3.30;;;;;;;14.25;90.43;98000.06;6208466;28;20741;-44
2022/07/06 05:13:29;;;;;;;3.87;3.57;;;;;;;14.30;90.64;97997.81;6211584;28;20231;-44
2022/07/06 05:16:33;;;;;;;3.70;3.50;;;;;;;14.37;90.60;97996.31;6227471;28;20330;-43
2022/07/06 05:19:35;;;;;;;4.23;3.87;;;;;;;14.42;90.71;98002.06;6211054;28;20707;-46
2022/07/06 05:22:37;;;;;;;3.43;3.23;;;;;;;14.47;90.39;98007.81;6202980;28;20240;-43
2022/07/06 05:25:48;;;;;;;3.70;3.40;;;;;;;14.56;90.42;97999.00;6224245;28;20243;-45
2022/07/06 05:28:51;;;;;;;3.43;3.23;;;;;;;14.64;90.44;98001.78;6211034;28;20536;-46
2022/07/06 05:31:56;;;;;;;4.13;3.83;;;;;;;14.71;90.21;98002.91;6214221;28;20688;-44
2022/07/06 05:34:58;;;;;;;4.13;3.40;;;;;;;14.78;90.26;98000.50;6229858;28;20231;-44
2022/07/06 05:38:20;;;;;;;3.80;3.50;;;;;;;14.85;90.31;98006.13;6210017;28;21130;-45
2022/07/06 05:41:24;;;;;;;3.77;3.40;;;;;;;14.92;90.00;98013.38;6210204;28;20597;-45
2022/07/06 05:44:33;;;;;;;6.07;3.40;;;;;;;15.00;89.87;98010.84;6227669;28;20239;-45
2022/07/06 05:50:56;;;;;;;5.17;3.57;;;;;;;15.11;90.10;98012.50;6228435;28;20773;-44
2022/07/06 05:53:59;;;;;;;3.43;3.10;;;;;;;15.22;90.15;98001.69;6211184;28;20247;-45
2022/07/06 05:57:01;;;;;;;3.03;2.83;;;;;;;15.33;90.10;98016.63;6199048;28;20747;-43
2022/07/06 06:00:07;;;;;;;3.53;3.23;;;;;;;15.42;89.97;98005.97;6202933;28;20676;-44
2022/07/06 06:03:16;;;;;;;3.30;3.00;;;;;;;15.50;89.79;98011.41;6220919;28;20247;-46
2022/07/06 06:06:19;;;;;;;3.10;2.90;;;;;;;15.58;89.65;98005.38;6213836;28;20893;-44
2022/07/06 06:09:21;;;;;;;4.10;3.00;;;;;;;15.68;89.56;97997.34;6232606;28;20231;-50
2022/07/06 06:12:25;;;;;;;3.33;2.90;;;;;;;15.83;89.08;98006.53;6216033;28;20227;-45
2022/07/06 06:15:28;;;;;;;4.97;2.80;;;;;;;15.96;88.84;98007.03;6215619;28;20258;-46
2022/07/06 06:18:30;;;;;;;2.93;2.37;;;;;;;16.16;88.15;98005.09;6214693;28;20228;-44
2022/07/06 06:21:38;;;;;;;3.00;2.80;;;;;;;16.33;87.39;98006.09;6233205;28;20236;-46
2022/07/06 06:24:40;;;;;;;3.30;3.00;;;;;;;16.52;86.28;98013.94;6232980;28;20314;-45
2022/07/06 06:27:42;;;;;;;4.60;2.53;;;;;;;16.81;84.90;98008.38;6231985;28;20327;-44
2022/07/06 06:30:44;;;;;;;2.53;2.43;;;;;;;17.19;81.80;98017.84;6232203;28;20231;-45
2022/07/06 06:33:46;;;;;;;2.73;2.30;;;;;;;17.55;79.88;98026.59;6232254;28;20635;-47
2022/07/06 06:36:48;;;;;;;3.27;2.40;;;;;;;18.03;75.75;98029.50;6233800;28;20764;-44
2022/07/06 06:39:50;;;;;;;2.93;2.33;;;;;;;18.44;72.04;98030.47;6232948;28;20227;-46
2022/07/06 06:42:52;;;;;;;2.30;2.10;;;;;;;18.91;71.04;98037.06;6232826;28;20236;-48
2022/07/06 06:45:54;;;;;;;2.20;2.10;;;;;;;19.26;69.45;98036.72;6232831;28;20235;-45
2022/07/06 06:48:56;;;;;;;2.10;2.00;;;;;;;19.74;67.76;98038.50;6232228;28;20760;-46
2022/07/06 06:51:59;;;;;;;3.20;2.33;;;;;;;20.14;65.82;98032.16;6233397;28;20714;-45
2022/07/06 06:55:21;;;;;;;1.90;1.80;;;;;;;20.42;64.50;98037.91;6223134;28;20236;-45
2022/07/06 06:58:22;;;;;;;3.80;2.27;;;;;;;20.58;62.66;98026.22;6231483;28;20735;-45
2022/07/06 07:01:25;;;;;;;3.43;2.13;;;;;;;20.80;62.13;98028.09;6232045;28;20703;-47
2022/07/06 07:04:29;;;;;;;2.20;1.80;;;;;;;20.98;61.15;98027.78;6231870;28;20242;-45
2022/07/06 07:07:31;;;;;;;2.17;1.97;;;;;;;21.03;60.85;98021.88;6231167;28;20319;-46
2022/07/06 07:10:33;;;;;;;5.33;1.97;;;;;;;21.15;60.63;98031.16;6232495;28;20318;-49
2022/07/06 07:13:35;;;;;;;2.67;1.60;;;;;;;21.28;60.03;98029.56;6231445;28;20294;-44
2022/07/06 07:16:37;;;;;;;2.30;2.07;;;;;;;21.34;60.42;98030.69;6230825;28;20238;-46
2022/07/06 07:19:40;;;;;;;1.90;1.80;;;;;;;21.65;59.13;98033.22;6230154;28;20317;-47
2022/07/06 07:22:42;;;;;;;3.13;1.83;;;;;;;21.84;58.06;98024.63;6221529;28;20274;-44
2022/07/06 07:25:44;;;;;;;2.13;1.93;;;;;;;22.06;56.88;98030.94;6212273;28;20710;-44
2022/07/06 07:28:47;;;;;;;3.97;1.50;;;;;;;22.51;56.27;98027.13;6205479;28;20247;-44
2022/07/06 07:31:49;;;;;;;2.33;1.50;;;;;;;22.80;56.47;98027.06;6209190;28;20331;-45
2022/07/06 07:34:51;;;;;;;2.43;1.60;;;;;;;22.97;55.51;98019.53;6183955;28;20232;-48
2022/07/06 07:37:53;;;;;;;2.30;2.10;;;;;;;23.13;55.54;98022.00;6215368;28;20376;-49
2022/07/06 07:40:56;;;;;;;2.20;1.80;;;;;;;23.28;54.55;98021.88;6196086;28;20232;-47
2022/07/06 07:43:58;;;;;;;2.53;1.90;;;;;;;23.27;54.92;98019.38;6197458;28;20688;-46
2022/07/06 07:47:01;;;;;;;4.07;1.93;;;;;;;23.40;54.19;98024.88;6197519;28;20344;-44
2022/07/06 07:50:04;;;;;;;4.17;1.70;;;;;;;23.47;53.42;98015.81;6213790;28;20235;-48
2022/07/06 07:53:06;;;;;;;2.70;2.00;;;;;;;23.66;53.52;98019.69;6216971;28;20246;-45
2022/07/06 07:56:08;;;;;;;2.43;1.70;;;;;;;23.98;53.14;98014.69;6214603;28;20774;-46
2022/07/06 07:59:10;;;;;;;2.40;1.63;;;;;;;24.28;52.72;98016.13;6200887;28;20267;-48
2022/07/06 08:02:32;;;;;;;1.63;1.53;;;;;;;24.45;51.77;98016.59;6190623;28;20228;-46
2022/07/06 08:05:34;;;;;;;1.80;1.70;;;;;;;24.64;50.77;98010.44;6229731;28;20236;-47
2022/07/06 08:08:36;;;;;;;2.13;1.93;;;;;;;24.73;50.47;98021.88;6222181;28;20236;-45
2022/07/06 08:11:38;;;;;;;3.03;1.83;;;;;;;25.06;50.13;98019.22;6225787;28;20336;-47
2022/07/06 08:14:40;;;;;;;1.73;1.60;;;;;;;25.29;49.50;98016.97;6230159;28;20610;-47
2022/07/06 08:17:42;;;;;;;2.00;1.60;;;;;;;25.68;48.97;98019.66;6229069;28;20228;-47
2022/07/06 08:20:45;;;;;;;3.97;1.97;;;;;;;25.72;48.86;98012.78;6230207;28;20313;-50
2022/07/06 08:24:07;;;;;;;2.55;1.80;;;;;;;25.63;47.81;98003.25;6228552;28;20240;-46
2022/07/06 08:27:09;;;;;;;2.50;1.50;;;;;;;25.96;48.31;98003.13;6228857;28;20311;-52
2022/07/06 08:30:12;;;;;;;2.05;1.85;;;;;;;25.84;48.28;98001.31;6229906;28;20569;-50
2022/07/06 08:33:14;;;;;;;1.80;1.70;;;;;;;26.49;47.24;98010.25;6229816;28;20211;-50
2022/07/06 08:36:16;;;;;;;2.55;1.65;;;;;;;26.97;45.90;98008.72;6228606;28;20695;-44
2022/07/06 08:39:18;;;;;;;1.85;1.63;;;;;;;27.09;45.11;98008.84;6229604;28;20208;-48
2022/07/06 08:42:21;;;;;;;3.78;1.75;;;;;;;27.04;42.15;98014.94;6229330;28;20576;-49
2022/07/06 08:45:25;;;;;;;3.75;2.00;;;;;;;27.04;43.55;98009.53;6229916;28;21067;-49
2022/07/06 08:48:28;;;;;;;1.77;1.63;;;;;;;27.15;43.92;98008.78;6229367;28;20224;-47
2022/07/06 08:51:31;;;;;;;1.83;1.70;;;;;;;27.64;43.16;98009.88;6227653;28;20314;-51
2022/07/06 08:54:33;;;;;;;1.60;1.50;;;;;;;27.89;43.13;98016.06;6229857;28;20252;-44
2022/07/06 08:57:36;;;;;;;2.03;1.90;;;;;;;28.16;41.79;98018.47;6228811;28;20224;-46
2022/07/06 09:00:39;;;;;;;2.17;1.65;;;;;;;28.36;41.48;98013.66;6229409;28;20234;-49
2022/07/06 09:03:41;;;;;;;2.17;1.55;;;;;;;28.08;40.68;98019.63;6228969;28;20231;-51
2022/07/06 09:06:46;;;;;;;2.00;1.80;;;;;;;28.15;40.14;98017.63;6211782;28;20224;-49
2022/07/06 09:09:49;;;;;;;3.20;1.80;;;;;;;27.91;39.85;98019.38;6228645;28;20227;-47
2022/07/06 09:12:51;;;;;;;2.55;1.60;;;;;;;28.12;40.66;98011.84;6204624;28;20232;-45
2022/07/06 09:15:53;;;;;;;3.80;1.60;;;;;;;28.44;40.92;98021.53;6220735;28;20235;-45
2022/07/06 09:19:16;;;;;;;2.88;1.70;;;;;;;28.65;40.53;98020.16;6227572;28;20232;-47
2022/07/06 09:22:31;;;;;;;2.17;1.95;;;;;;;28.54;40.02;98018.25;6229310;28;20227;-49
2022/07/06 09:25:34;;;;;;;2.03;1.77;;;;;;;28.65;40.22;98023.72;6229511;28;20231;-46
2022/07/06 09:28:44;;;;;;;1.60;1.50;;;;;;;28.68;40.16;98014.28;6228131;28;20727;-49
2022/07/06 09:32:02;;;;;;;2.83;1.70;;;;;;;28.76;39.14;98010.41;6228222;28;20224;-46
2022/07/06 09:35:04;;;;;;;1.60;1.50;;;;;;;29.15;40.32;98009.03;6228929;28;20236;-50
2022/07/06 09:38:08;;;;;;;1.73;1.63;;;;;;;29.61;39.18;98008.28;6228003;28;20719;-46
2022/07/06 09:41:10;;;;;;;2.53;1.27;;;;;;;29.78;39.24;98009.19;6233488;28;20239;-51
2022/07/06 09:44:13;;;;;;;1.65;1.48;;;;;;;29.71;39.09;97997.63;6233284;28;20712;-51
2022/07/06 09:47:15;;;;;;;2.85;1.83;;;;;;;29.67;38.66;97997.25;6232479;28;20781;-48
2022/07/06 09:50:17;;;;;;;1.92;1.58;;;;;;;29.97;39.23;97999.84;6232092;28;20318;-49
2022/07/06 09:53:21;;;;;;;1.63;1.52;;;;;;;29.41;38.71;98003.19;6233505;28;20228;-50
2022/07/06 09:56:39;;;;;;;2.45;1.88;;;;;;;29.02;41.17;98007.34;6227691;28;20327;-48
2022/07/06 09:59:41;;;;;;;2.78;1.65;;;;;;;29.17;39.87;98002.28;6228015;28;20247;-47
2022/07/06 10:02:43;;;;;;;2.20;1.67;;;;;;;29.53;38.97;97995.03;6210685;28;20254;-45
2022/07/06 10:05:47;;;;;;;3.85;2.20;;;;;;;30.52;37.67;97991.22;6228368;28;20707;-45
2022/07/06 10:08:50;;;;;;;3.45;2.05;;;;;;;30.79;37.02;98000.44;6224893;28;20242;-44
2022/07/06 10:11:57;;;;;;;1.63;1.48;;;;;;;30.41;37.68;97994.78;6225463;28;20231;-46
2022/07/06 10:15:00;;;;;;;1.60;1.50;;;;;;;29.48;38.08;97998.44;6223974;28;20251;-49
2022/07/06 10:18:05;;;;;;;1.63;1.52;;;;;;;28.54;40.08;98001.97;6223481;28;20220;-44
2022/07/06 10:21:07;;;;;;;1.75;1.65;;;;;;;27.96;42.20;98015.97;6222421;28;20221;-47
2022/07/06 10:24:10;;;;;;;1.83;1.73;;;;;;;27.47;43.15;98008.72;6211998;28;20662;-44
2022/07/06 10:27:14;;;;;;;1.90;1.80;;;;;;;26.72;44.03;98003.25;6223954;28;20223;-46
2022/07/06 10:30:17;;;;;;;2.13;1.77;;;;;;;25.95;47.04;98022.31;6226454;28;20722;-46
2022/07/06 10:33:20;;;;;;;12.10;2.58;;;;;;;24.94;52.51;98041.47;6208630;28;20224;-45
2022/07/06 10:36:29;;;;;;;2.47;2.05;;;;;;;24.34;55.55;98066.59;6224354;28;20228;-46
2022/07/06 10:43:03;;;;;;;3.08;2.67;;;;;;;22.58;63.31;98145.56;6228056;28;20244;-47
2022/07/06 10:46:10;;;;;;;4.45;2.92;;;;;;;21.77;64.57;98174.13;6226989;28;20628;-45
2022/07/06 10:49:16;;;;;;;4.57;2.53;;;;;;;20.94;65.33;98171.38;6218808;28;20232;-48
2022/07/06 10:52:58;;;;;;;7.27;3.13;;;;;;;19.77;68.79;98187.28;6228662;28;20322;-47
2022/07/06 10:56:04;;;;;;;5.30;2.90;;;;;;;19.15;69.88;98169.03;6223962;28;20235;-48
2022/07/06 10:59:11;;;;;;;5.37;3.27;;;;;;;18.72;72.78;98166.56;6229045;28;20224;-46
2022/07/06 11:02:18;;;;;;;4.07;2.70;;;;;;;18.32;74.21;98159.19;6231810;28;20238;-46
2022/07/06 11:05:40;;;;;;;2.73;2.33;;;;;;;18.44;73.42;98121.34;6231483;28;20636;-44
2022/07/06 11:09:09;;;;;;;6.97;3.07;;;;;;;18.81;72.65;98104.09;6232166;28;20232;-44
2022/07/06 11:12:20;;;;;;;2.70;2.00;;;;;;;18.63;72.95;98116.75;6232384;28;20563;-45
2022/07/06 11:16:04;;;;;;;2.60;1.87;;;;;;;18.84;73.08;98111.78;6246738;28;20561;-46
2022/07/06 11:19:08;;;;;;;4.77;2.30;;;;;;;19.60;71.75;98116.84;6142790;29;20206;-47
2022/07/06 11:22:10;;;;;;;3.03;2.20;;;;;;;20.86;68.98;98117.78;6146806;29;20596;-47
2022/07/06 11:25:12;;;;;;;2.20;2.00;;;;;;;22.04;67.68;98116.31;6112372;29;20662;-46
2022/07/06 11:28:15;;;;;;;2.50;2.03;;;;;;;23.02;67.16;98111.34;6114958;29;20602;-46
2022/07/06 11:31:17;;;;;;;1.73;1.53;;;;;;;23.72;65.20;98102.47;6130805;29;20777;-45
2022/07/06 11:34:23;;;;;;;1.90;1.80;;;;;;;24.16;65.08;98107.53;6125365;29;20382;-47
2022/07/06 11:37:25;;;;;;;1.93;1.30;;;;;;;23.71;65.41;98113.44;6122047;29;20317;-46
2022/07/06 11:40:29;;;;;;;2.40;1.60;;;;;;;23.17;66.19;98106.72;6131516;28;20238;-45
2022/07/06 11:43:31;;;;;;;1.70;1.60;;;;;;;23.09;66.85;98103.34;6126649;29;20816;-46
2022/07/06 11:46:35;;;;;;;1.80;1.70;;;;;;;23.40;66.64;98103.00;6129760;29;20439;-45
2022/07/06 11:49:40;;;;;;;2.60;2.10;;;;;;;24.19;65.25;98095.50;6181425;28;20743;-46
2022/07/06 11:52:42;;;;;;;3.30;1.83;;;;;;;24.87;64.13;98082.94;6230202;28;20240;-46
2022/07/06 11:55:44;;;;;;;2.47;1.77;;;;;;;25.50;62.10;98076.19;6227756;28;20255;-46
2022/07/06 11:58:49;;;;;;;2.30;2.10;;;;;;;26.10;61.58;98064.28;6228623;28;21051;-44
2022/07/06 12:01:59;;;;;;;2.10;1.90;;;;;;;26.65;58.14;98064.72;6228806;28;20310;-49
2022/07/06 12:05:33;;;;;;;2.50;2.22;;;;;;;27.30;57.17;98072.69;6154412;28;20226;-51
2022/07/06 12:08:45;;;;;;;2.15;1.98;;;;;;;27.77;56.83;98065.84;6154305;28;20604;-45
2022/07/06 12:11:47;;;;;;;3.13;2.15;;;;;;;27.95;56.80;98065.09;6155571;28;20296;-45
2022/07/06 12:14:52;;;;;;;2.65;2.00;;;;;;;28.19;56.04;98059.59;6153525;28;20225;-48
2022/07/06 12:17:54;;;;;;;1.83;1.63;;;;;;;28.51;55.58;98068.41;6154715;28;20241;-47
2022/07/06 12:20:57;;;;;;;3.10;2.10;;;;;;;28.76;52.60;98054.72;6153036;28;20802;-48
2022/07/06 12:23:59;;;;;;;3.85;2.20;;;;;;;29.10;51.64;98042.34;6151450;28;20316;-47
2022/07/06 12:27:15;;;;;;;1.60;1.50;;;;;;;29.34;48.01;98038.63;6151358;28;20236;-48
2022/07/06 12:30:17;;;;;;;1.88;1.77;;;;;;;29.43;50.49;98038.31;6196474;28;20219;-47
2022/07/06 12:33:24;;;;;;;2.20;2.10;;;;;;;29.91;50.72;98040.78;6227898;28;20242;-50
2022/07/06 12:36:27;;;;;;;1.73;1.63;;;;;;;30.25;47.41;98045.38;6227524;28;20447;-47
2022/07/06 12:39:29;;;;;;;1.70;1.60;;;;;;;30.20;46.55;98039.84;6228179;28;20281;-50
2022/07/06 12:42:31;;;;;;;1.60;1.50;;;;;;;30.49;45.40;98043.44;6229929;28;20397;-50
2022/07/06 12:45:33;;;;;;;2.20;1.50;;;;;;;30.09;41.60;98027.91;6228561;28;20743;-50
2022/07/06 12:48:51;;;;;;;1.80;1.70;;;;;;;30.24;43.44;98037.47;6229124;28;20720;-50
2022/07/06 12:52:00;;;;;;;1.73;1.48;;;;;;;30.64;39.12;98037.50;6229145;28;20231;-50
2022/07/06 12:55:04;;;;;;;2.13;1.40;;;;;;;30.94;38.40;98039.97;6228791;28;20738;-51
2022/07/06 12:58:18;;;;;;;1.48;1.38;;;;;;;31.47;40.48;98034.94;6209409;28;20742;-49
2022/07/06 13:01:20;;;;;;;1.83;1.58;;;;;;;32.06;38.24;98035.28;6226189;28;20298;-49
2022/07/06 13:04:27;;;;;;;2.17;1.40;;;;;;;31.40;37.73;98036.19;6217908;28;20259;-50
2022/07/06 13:07:40;;;;;;;2.45;1.50;;;;;;;30.91;40.66;98032.28;6223593;28;20346;-49
2022/07/06 13:10:42;;;;;;;2.05;1.50;;;;;;;30.98;41.30;98046.59;6211068;28;20696;-48
2022/07/06 13:13:45;;;;;;;2.33;1.67;;;;;;;30.17;40.39;98048.47;6228586;28;20227;-49
2022/07/06 13:16:48;;;;;;;1.40;1.30;;;;;;;30.15;39.63;98041.63;6228020;28;20263;-50
2022/07/06 13:19:50;;;;;;;4.43;1.42;;;;;;;30.62;39.52;98045.09;6229098;28;20692;-51
2022/07/06 13:22:52;;;;;;;1.55;1.35;;;;;;;30.30;41.40;98055.56;6230037;28;20325;-50
2022/07/06 13:25:54;;;;;;;1.67;1.20;;;;;;;29.34;42.00;98060.38;6228522;28;20250;-46
2022/07/06 13:28:57;;;;;;;2.28;1.50;;;;;;;28.14;42.13;98085.75;6230416;28;20339;-49
2022/07/06 13:31:59;;;;;;;6.93;2.85;;;;;;;26.36;48.31;98132.94;6211904;28;20413;-51
2022/07/06 13:35:01;;;;;;;3.97;2.33;;;;;;;25.08;53.05;98119.78;6229204;28;20257;-48
2022/07/06 13:38:03;;;;;;;2.58;1.60;;;;;;;23.77;51.12;98101.88;6228643;28;20687;-50
2022/07/06 13:41:05;;;;;;;2.00;1.40;;;;;;;22.76;55.78;98086.81;6228061;28;20725;-50
2022/07/06 13:44:09;;;;;;;1.55;1.30;;;;;;;22.40;58.80;98094.88;6227365;28;20234;-44
2022/07/06 13:47:16;;;;;;;1.83;1.30;;;;;;;22.00;59.97;98075.50;6228614;28;20228;-47
2022/07/06 13:50:18;;;;;;;2.58;1.23;;;;;;;21.65;60.68;98069.00;6228514;28;20748;-47
2022/07/06 13:53:20;;;;;;;1.47;1.20;;;;;;;21.36;61.36;98072.44;6228055;28;20699;-46
2022/07/06 13:56:22;;;;;;;1.77;1.20;;;;;;;21.36;62.73;98079.69;6228298;28;20311;-49
2022/07/06 13:59:24;;;;;;;1.23;1.13;;;;;;;21.28;63.31;98088.63;6227505;28;20322;-48
2022/07/06 14:02:26;;;;;;;1.40;1.20;;;;;;;21.13;64.25;98087.72;6228501;28;21078;-46
2022/07/06 14:05:29;;;;;;;2.50;1.83;;;;;;;21.02;65.35;98079.25;6227968;28;20238;-50
2022/07/06 14:08:31;;;;;;;1.47;1.37;;;;;;;21.19;65.47;98067.38;6227345;28;20278;-49
2022/07/06 14:11:33;;;;;;;2.90;1.20;;;;;;;21.63;64.41;98057.59;6227610;28;20235;-48
2022/07/06 14:14:35;;;;;;;1.57;1.10;;;;;;;21.72;62.67;98053.78;6229427;28;20281;-44
2022/07/06 14:17:37;;;;;;;1.03;0.93;;;;;;;21.84;63.06;98070.31;6227704;28;20318;-48
2022/07/06 14:20:40;;;;;;;1.20;1.10;;;;;;;21.80;63.31;98069.00;6227898;28;20232;-49
2022/07/06 14:23:42;;;;;;;1.33;1.23;;;;;;;21.65;63.93;98081.59;6228404;28;20322;-47
2022/07/06 14:26:44;;;;;;;2.60;1.40;;;;;;;21.47;64.52;98084.59;6228548;28;20231;-46
2022/07/06 14:29:46;;;;;;;1.20;1.20;;;;;;;20.58;67.91;98131.66;6232295;28;20231;-48
2022/07/06 14:32:48;;;;;;;2.00;1.90;;;;;;;19.85;69.48;98134.56;6234114;28;20228;-49
2022/07/06 14:35:51;;;;;;;2.67;1.90;;;;;;;19.56;69.99;98146.81;6231615;28;20281;-47